Airport ICAO


14:28 UTC

13°C

Scattered clouds


An affordable passengers' Moving Map for your aircraft. Made for the iPad and the iPhone
More information here

EGLC City


London UNITED KINGDOM   VFR


METAR EGLC 231420Z AUTO 30016KT 280V350 9999 SCT035 SCT043 13/04 Q1020 0h08min

TAF EGLC 231402Z 2315/2321 32008KT 9999 FEW030 0h26min





NOTAMS

OPEN